SVMC

Details ICAO SVMC (MAR)
Name LA CHINITA INTL
Region Venezuela
Timezone America/Caracas (UTC-4.0)
Plans Departing 147
Arriving 117
Stats Elevation 235 ft / 72 m (AMSL)
Location 10.558208° -71.727858°
Runways 2
Magnetic Variation 9.563° W
Sunrise 2017-12-15 10:58:15 UTC / 2017-12-15 06:58:15 Local
Sunset 2017-12-15 22:28:51 UTC / 2017-12-15 18:28:51 Local
Advertisement - Login to hide

Runways

ID Width Length Bearing (true) Bearing (mag) Surface Threshold Offset Overrun Length
02L 148 ft / 45 m 9,897 ft / 3,017 m 22.67° 32.23° Asphalt 0 ft / 0 m 125 ft / 38 m
02R 98 ft / 30 m 8,238 ft / 2,511 m 22.61° 32.17° Asphalt 0 ft / 0 m 0 ft / 0 m
20L 98 ft / 30 m 8,238 ft / 2,511 m 202.62° 212.18° Asphalt 0 ft / 0 m 0 ft / 0 m
20R 148 ft / 45 m 9,897 ft / 3,017 m 202.67° 212.23° Asphalt 0 ft / 0 m 985 ft / 300 m

Map

Weather


0- 5 10 15 20 25 30 35+ Temperature / ° C

Clouds and Precipitation
Forecast for 2017-12-15 18:00 UTC. Updated 35 minutes ago

Ground ~20,000 ft ~40,000 ft Winds

METAR

SVMC 151700Z 36001KT 9999 BKN013 32/24 Q1013

TAF

Not found

Frequencies

Ground 121.90 MHz GND
Approach 120.20 MHz MARACAIBO APP
Tower 118.90 MHz TWR
Approach 119.70 MHz MARACAIBO APP
Warning: Do not use this data for real-world aviation or navigation. No guarantee of current accuracy is given.